Terminal Aerodrome Forecast
Issued by NWS Cleveland, OH

Home | Current Version | Previous Version | Graphics & Text | Print | Product List | Glossary On
Versions: 1 2 3 4 5 6 7 8 9 10 11 12 13 14 15 16 17 18 19 20 21
945
FTUS41 KCLE 260810 AAA
TAFTOL
TAF AMD
KTOL 260810Z 2608/2706 07012KT P6SM OVC008
     FM261200 06004KT 5SM BR SCT012 OVC045
      TEMPO 2612/2615 3SM BR BKN012
     FM261500 08006KT 3SM -RA BR OVC020
      TEMPO 2615/2618 1SM -RA BR OVC008
     FM262100 20008KT P6SM BKN045 OVC120
     FM270200 20004KT 5SM BR SCT006 BKN120=

USA.gov is the U.S. government's official web portal to all federal, state and local government web resources and services.